Time;durP1;ratioP1;P1;durP2;ratioP2;P2;SDS_P1;SDS_P2;PMS_P1;PMS_P2;Temp;Humidity;BMP_temperature;BMP_pressure;BME280_temperature;BME280_humidity;BME280_pressure;Samples;Min_cycle;Max_cycle;Signal;HPM_P1;HPM_P2
2023/03/26 00:01:57;;;;;;;22.20;3.45;;;7.30;99.90;;;;;;4968514;28;20055;-83
2023/03/26 00:04:24;;;;;;;23.05;3.53;;;7.30;99.90;;;;;;4968130;28;20090;-83
2023/03/26 00:06:50;;;;;;;24.60;3.70;;;7.30;99.90;;;;;;4951754;28;20143;-84
2023/03/26 00:09:18;;;;;;;28.92;4.28;;;7.30;99.90;;;;;;4952863;28;20141;-84
2023/03/26 00:11:45;;;;;;;23.95;4.13;;;7.20;99.90;;;;;;4952034;28;20043;-85
2023/03/26 00:14:12;;;;;;;26.90;4.47;;;7.30;99.90;;;;;;4968312;28;20054;-84
2023/03/26 00:16:40;;;;;;;29.10;4.15;;;7.20;99.90;;;;;;4952560;28;20049;-84
2023/03/26 00:19:07;;;;;;;28.20;3.92;;;7.20;99.90;;;;;;4951544;28;20133;-84
2023/03/26 00:21:33;;;;;;;27.55;4.00;;;7.30;99.90;;;;;;4951822;28;20050;-84
2023/03/26 00:24:03;;;;;;;28.10;3.58;;;7.20;99.90;;;;;;4968289;28;20514;-84
2023/03/26 00:26:30;;;;;;;28.13;3.63;;;7.20;99.90;;;;;;4951838;28;20050;-84
2023/03/26 00:28:56;;;;;;;25.42;4.13;;;7.20;99.90;;;;;;4936202;28;20043;-84
2023/03/26 00:31:22;;;;;;;26.40;4.25;;;7.10;99.90;;;;;;4952170;28;20057;-84
2023/03/26 00:33:53;;;;;;;20.52;3.47;;;7.20;99.90;;;;;;4951403;28;20051;-84
2023/03/26 00:36:18;;;;;;;21.05;2.92;;;7.10;99.90;;;;;;4950855;28;20475;-84
2023/03/26 00:38:45;;;;;;;28.40;3.88;;;7.00;99.90;;;;;;4968086;28;20046;-83
2023/03/26 00:41:29;;;;;;;22.80;3.50;;;7.10;99.90;;;;;;4951123;28;20050;-84
2023/03/26 00:43:57;;;;;;;27.20;3.75;;;7.20;99.90;;;;;;4967422;28;20490;-84
2023/03/26 00:46:24;;;;;;;23.77;3.38;;;6.80;99.90;;;;;;4966956;28;20161;-84
2023/03/26 00:48:49;;;;;;;29.92;3.80;;;6.70;99.90;;;;;;4951652;28;20050;-84
2023/03/26 00:51:17;;;;;;;25.88;4.55;;;6.90;99.90;;;;;;4950827;28;20043;-83
2023/03/26 00:53:45;;;;;;;28.02;3.72;;;6.70;99.90;;;;;;4950975;28;20498;-84
2023/03/26 00:56:11;;;;;;;34.53;4.32;;;6.70;99.90;;;;;;4951726;28;20047;-83
2023/03/26 00:58:38;;;;;;;27.42;3.63;;;6.60;99.90;;;;;;4935862;28;20479;-83
2023/03/26 01:01:08;;;;;;;24.58;4.00;;;6.70;99.90;;;;;;4951136;28;20061;-83
2023/03/26 01:03:35;;;;;;;22.33;3.63;;;6.80;99.90;;;;;;4951807;28;20529;-84
2023/03/26 01:06:07;;;;;;;32.13;4.07;;;7.10;99.90;;;;;;4950750;28;20108;-83
2023/03/26 01:08:40;;;;;;;29.38;4.28;;;6.80;99.90;;;;;;4950507;28;20073;-84
2023/03/26 01:11:13;;;;;;;;;;;6.70;99.90;;;;;;4951990;28;20077;-84
2023/03/26 01:13:45;;;;;;;29.60;4.03;;;6.70;99.90;;;;;;4935276;28;19932;-84
2023/03/26 01:16:20;;;;;;;24.83;3.78;;;6.70;99.90;;;;;;4950356;28;20051;-84
2023/03/26 01:18:47;;;;;;;29.70;3.75;;;6.70;99.90;;;;;;4951383;28;20414;-83
2023/03/26 01:21:21;;;;;;;24.27;3.83;;;6.70;99.90;;;;;;4950043;28;20519;-83
2023/03/26 01:23:56;;;;;;;28.52;3.70;;;6.70;99.90;;;;;;4967035;28;20092;-84
2023/03/26 01:26:37;;;;;;;33.22;3.95;;;6.70;99.90;;;;;;4951475;28;20070;-84
2023/03/26 01:29:10;;;;;;;25.52;4.10;;;6.70;99.90;;;;;;4934675;28;20047;-84
2023/03/26 01:31:49;;;;;;;25.33;3.97;;;6.70;99.90;;;;;;4951044;28;20054;-85
2023/03/26 01:34:21;;;;;;;23.33;4.00;;;6.60;99.90;;;;;;4951296;28;20406;-83
2023/03/26 01:36:55;;;;;;;23.20;3.78;;;6.60;99.90;;;;;;4949442;28;20513;-83
2023/03/26 01:39:29;;;;;;;31.90;4.22;;;6.60;99.90;;;;;;4970742;28;20058;-84
2023/03/26 01:42:02;;;;;;;33.72;4.05;;;6.60;99.90;;;;;;4969854;28;20085;-84
2023/03/26 01:44:37;;;;;;;29.13;3.72;;;6.60;99.90;;;;;;4954101;28;20061;-84
2023/03/26 01:47:04;;;;;;;27.80;3.55;;;6.50;99.90;;;;;;4970248;28;20046;-83
2023/03/26 01:49:30;;;;;;;22.83;3.88;;;6.50;99.90;;;;;;4970717;28;20126;-83
2023/03/26 01:51:57;;;;;;;26.75;4.63;;;6.50;99.90;;;;;;4952586;28;20141;-83
2023/03/26 01:54:27;;;;;;;27.85;4.68;;;6.50;99.90;;;;;;4954582;28;20077;-83
2023/03/26 01:57:18;;;;;;;32.42;4.78;;;6.50;99.90;;;;;;4953244;28;20379;-83
2023/03/26 02:00:11;;;;;;;34.85;4.82;;;6.40;99.90;;;;;;4954179;28;20414;-83
2023/03/26 02:02:41;;;;;;;30.98;4.95;;;6.40;99.90;;;;;;4969937;28;20121;-83
2023/03/26 02:05:19;;;;;;;23.63;3.20;;;6.40;99.90;;;;;;4952305;28;20054;-83
2023/03/26 02:07:54;;;;;;;28.70;4.28;;;6.60;99.90;;;;;;4954065;28;20046;-83
2023/03/26 02:10:29;;;;;;;24.45;3.30;;;6.70;99.90;;;;;;4953440;28;20633;-83
2023/03/26 02:12:56;;;;;;;22.10;4.20;;;6.60;99.90;;;;;;4969273;28;20050;-83
2023/03/26 02:15:22;;;;;;;28.92;3.90;;;6.50;99.90;;;;;;4953794;28;20133;-83
2023/03/26 02:17:48;;;;;;;28.88;3.78;;;6.70;99.90;;;;;;4969148;28;20457;-83
2023/03/26 02:20:17;;;;;;;24.05;3.40;;;6.50;99.90;;;;;;4952596;28;20363;-83
2023/03/26 02:22:44;;;;;;;26.17;4.10;;;6.60;99.90;;;;;;4957182;28;20046;-83
2023/03/26 02:25:13;;;;;;;31.48;4.13;;;6.50;99.90;;;;;;4956381;28;20049;-83
2023/03/26 02:27:39;;;;;;;22.90;3.90;;;6.50;99.90;;;;;;4957373;28;20129;-83
2023/03/26 02:30:09;;;;;;;23.63;3.53;;;6.60;99.90;;;;;;4988839;28;20422;-84
2023/03/26 02:32:35;;;;;;;27.50;3.45;;;6.50;99.90;;;;;;4972675;28;20487;-84
2023/03/26 02:35:01;;;;;;;28.88;3.67;;;6.50;99.90;;;;;;4954715;28;20042;-84
2023/03/26 02:37:29;;;;;;;18.58;3.67;;;6.50;99.90;;;;;;4954743;28;20098;-83
2023/03/26 02:39:55;;;;;;;25.73;3.75;;;6.50;99.90;;;;;;4953093;28;20047;-83
2023/03/26 02:42:21;;;;;;;24.13;3.95;;;6.50;99.90;;;;;;4953805;28;20054;-83
2023/03/26 02:44:47;;;;;;;20.90;3.65;;;6.50;99.90;;;;;;4953837;28;20038;-84
2023/03/26 02:47:12;;;;;;;25.08;4.10;;;6.50;99.90;;;;;;4968732;28;20057;-83
2023/03/26 02:49:38;;;;;;;25.13;3.80;;;6.50;99.90;;;;;;4969907;28;20035;-83
2023/03/26 02:52:05;;;;;;;28.92;4.57;;;6.50;99.90;;;;;;4968687;28;20047;-83
2023/03/26 02:54:33;;;;;;;20.75;3.58;;;6.50;99.90;;;;;;4969429;28;20068;-84
2023/03/26 02:56:58;;;;;;;25.90;4.78;;;6.50;99.90;;;;;;4953960;28;20051;-84
2023/03/26 02:59:24;;;;;;;28.60;4.00;;;6.70;99.90;;;;;;4953445;28;20047;-84
2023/03/26 03:01:50;;;;;;;26.75;3.53;;;7.00;99.90;;;;;;4968742;28;20479;-83
2023/03/26 03:04:16;;;;;;;29.75;3.95;;;6.40;99.90;;;;;;4969060;28;20137;-83
2023/03/26 03:06:43;;;;;;;19.88;3.53;;;6.50;99.90;;;;;;4968576;28;20053;-83
2023/03/26 03:09:10;;;;;;;26.98;4.03;;;6.40;99.90;;;;;;4968815;28;20058;-83
2023/03/26 03:11:38;;;;;;;31.27;4.80;;;6.50;99.90;;;;;;4953001;28;20043;-84
2023/03/26 03:14:04;;;;;;;21.73;3.75;;;6.40;99.90;;;;;;4952694;28;20057;-83
2023/03/26 03:16:30;;;;;;;19.73;3.13;;;6.40;99.90;;;;;;4953006;28;20039;-84
2023/03/26 03:18:56;;;;;;;30.65;4.25;;;6.40;99.90;;;;;;4937581;28;20046;-84
2023/03/26 03:21:23;;;;;;;26.13;4.53;;;6.40;99.90;;;;;;4951493;28;20038;-84
2023/03/26 03:23:49;;;;;;;25.17;3.53;;;6.50;99.90;;;;;;4953189;28;20491;-84
2023/03/26 03:26:20;;;;;;;24.52;3.58;;;6.40;99.90;;;;;;4953159;28;20061;-83
2023/03/26 03:28:47;;;;;;;23.42;3.65;;;6.50;99.90;;;;;;4952459;28;20043;-83
2023/03/26 03:31:13;;;;;;;21.75;4.40;;;6.40;99.90;;;;;;4953045;28;20149;-84
2023/03/26 03:33:41;;;;;;;24.67;3.40;;;6.40;99.90;;;;;;4951114;28;20093;-84
2023/03/26 03:36:09;;;;;;;19.55;3.58;;;6.40;99.90;;;;;;4951242;28;20145;-83
2023/03/26 03:38:36;;;;;;;22.65;2.80;;;6.30;99.90;;;;;;4936719;28;20114;-83
2023/03/26 03:41:02;;;;;;;27.83;4.10;;;6.30;99.90;;;;;;4952608;28;20126;-83
2023/03/26 03:43:27;;;;;;;25.63;4.13;;;6.30;99.90;;;;;;4936177;28;20193;-84
2023/03/26 03:45:53;;;;;;;20.73;3.28;;;6.30;99.90;;;;;;4968470;28;20081;-84
2023/03/26 03:48:19;;;;;;;28.00;3.83;;;6.30;99.90;;;;;;4952812;28;20054;-83
2023/03/26 03:50:44;;;;;;;23.77;4.13;;;6.20;99.90;;;;;;4950616;28;20050;-83
2023/03/26 03:53:14;;;;;;;31.77;5.18;;;6.20;99.90;;;;;;4952914;28;20089;-83
2023/03/26 03:55:41;;;;;;;26.15;4.32;;;6.20;99.90;;;;;;4951798;28;20057;-84
2023/03/26 03:58:08;;;;;;;29.73;4.63;;;6.10;99.90;;;;;;4952112;28;20389;-84
2023/03/26 04:00:37;;;;;;;25.85;3.95;;;6.10;99.90;;;;;;4968290;28;20074;-84
2023/03/26 04:03:05;;;;;;;16.85;3.20;;;6.10;99.90;;;;;;4952499;28;20058;-84
2023/03/26 04:05:32;;;;;;;31.80;4.22;;;6.00;99.90;;;;;;4966764;28;20094;-84
2023/03/26 04:07:58;;;;;;;25.30;3.35;;;6.00;99.90;;;;;;4968678;28;20094;-83
2023/03/26 04:10:25;;;;;;;24.80;4.25;;;6.00;99.90;;;;;;4951205;28;20050;-83
2023/03/26 04:12:51;;;;;;;27.20;4.28;;;6.20;99.90;;;;;;4951876;28;20490;-83
2023/03/26 04:15:17;;;;;;;24.30;3.85;;;6.00;99.90;;;;;;4967699;28;20274;-83
2023/03/26 04:17:43;;;;;;;28.55;3.60;;;6.00;99.90;;;;;;4951460;28;20047;-83
2023/03/26 04:20:13;;;;;;;44.10;5.45;;;6.00;99.90;;;;;;4951401;28;20488;-83
2023/03/26 04:22:39;;;;;;;25.42;4.20;;;5.90;99.90;;;;;;4951978;28;20069;-83
2023/03/26 04:25:06;;;;;;;24.75;3.63;;;6.30;99.90;;;;;;4951240;28;20043;-83
2023/03/26 04:27:35;;;;;;;31.48;3.72;;;6.00;99.90;;;;;;4936138;28;20058;-84
2023/03/26 04:30:02;;;;;;;30.63;4.38;;;6.00;99.90;;;;;;4951987;28;20050;-84
2023/03/26 04:32:32;;;;;;;23.58;4.15;;;6.50;99.90;;;;;;4951591;28;20089;-83
2023/03/26 04:35:02;;;;;;;24.38;3.63;;;6.00;99.90;;;;;;4951654;28;20079;-82
2023/03/26 04:37:33;;;;;;;36.90;5.28;;;6.20;99.90;;;;;;4951789;28;20058;-83
2023/03/26 04:40:05;;;;;;;22.80;3.67;;;6.00;99.90;;;;;;4951541;28;20047;-83
2023/03/26 04:42:32;;;;;;;24.95;3.42;;;6.10;99.90;;;;;;4952071;28;20465;-83
2023/03/26 04:44:58;;;;;;;26.92;3.80;;;6.10;99.90;;;;;;4951615;28;20049;-83
2023/03/26 04:47:24;;;;;;;29.73;4.45;;;6.10;99.90;;;;;;4966841;28;20129;-84
2023/03/26 04:49:50;;;;;;;22.63;3.70;;;6.10;99.90;;;;;;4951845;28;20477;-83
2023/03/26 04:52:16;;;;;;;26.38;3.70;;;6.10;99.90;;;;;;4967160;28;20224;-83
2023/03/26 04:54:44;;;;;;;27.58;3.25;;;6.10;99.90;;;;;;4966772;28;20054;-83
2023/03/26 04:57:21;;;;;;;29.50;3.60;;;6.10;99.90;;;;;;4951408;28;20047;-83
2023/03/26 04:59:46;;;;;;;31.88;3.65;;;6.10;99.90;;;;;;4950879;28;20046;-83
2023/03/26 05:02:13;;;;;;;23.70;4.10;;;6.10;99.90;;;;;;4967678;28;20367;-83
2023/03/26 05:04:39;;;;;;;23.65;3.17;;;6.20;99.90;;;;;;4935504;28;20561;-83
2023/03/26 05:07:04;;;;;;;25.88;2.92;;;6.10;99.90;;;;;;4950136;28;20051;-83
2023/03/26 05:09:30;;;;;;;26.02;4.15;;;6.10;99.90;;;;;;4951815;28;20035;-84
2023/03/26 05:11:57;;;;;;;25.85;4.63;;;6.10;99.90;;;;;;4951274;28;20518;-83
2023/03/26 05:14:23;;;;;;;20.40;2.72;;;6.00;99.90;;;;;;4966528;28;20059;-83
2023/03/26 05:16:52;;;;;;;22.15;2.92;;;6.10;99.90;;;;;;4967399;28;20054;-83
2023/03/26 05:19:18;;;;;;;23.63;3.63;;;6.30;99.90;;;;;;4951564;28;20063;-83
2023/03/26 05:21:44;;;;;;;24.20;3.20;;;6.00;99.90;;;;;;4949740;28;20402;-83
2023/03/26 05:24:10;;;;;;;25.63;3.00;;;6.00;99.90;;;;;;4967450;28;20502;-82
2023/03/26 05:26:36;;;;;;;28.52;3.60;;;6.00;99.90;;;;;;4966755;28;20105;-83
2023/03/26 05:29:03;;;;;;;28.27;4.10;;;6.00;99.90;;;;;;4966613;28;20039;-83
2023/03/26 05:31:30;;;;;;;25.42;4.25;;;6.00;99.90;;;;;;4951093;28;20541;-83
2023/03/26 05:33:57;;;;;;;23.63;3.08;;;5.90;99.90;;;;;;4951520;28;20050;-83
2023/03/26 05:36:23;;;;;;;25.08;3.38;;;6.00;99.90;;;;;;4933813;28;20398;-83
2023/03/26 05:38:51;;;;;;;25.70;4.15;;;5.90;99.90;;;;;;4950936;28;20534;-83
2023/03/26 05:41:17;;;;;;;28.45;4.10;;;5.90;99.90;;;;;;4951168;28;20081;-83
2023/03/26 05:43:43;;;;;;;23.75;4.10;;;5.90;99.90;;;;;;4949923;28;20051;-83
2023/03/26 05:46:10;;;;;;;32.95;5.32;;;5.80;99.90;;;;;;4951110;28;20053;-83
2023/03/26 05:48:37;;;;;;;30.15;3.92;;;5.90;99.90;;;;;;4934734;28;20097;-83
2023/03/26 05:51:03;;;;;;;30.60;3.60;;;5.80;99.90;;;;;;4949536;28;20043;-83
2023/03/26 05:53:29;;;;;;;25.60;3.55;;;5.80;99.90;;;;;;4951786;28;20070;-83
2023/03/26 05:56:01;;;;;;;21.08;3.25;;;5.80;99.90;;;;;;4934281;28;20364;-83
2023/03/26 05:58:29;;;;;;;26.40;4.70;;;5.80;99.90;;;;;;4955290;28;20078;-83
2023/03/26 06:01:04;;;;;;;24.70;3.22;;;5.90;99.90;;;;;;4954417;28;20078;-83
2023/03/26 06:03:31;;;;;;;18.80;3.33;;;5.90;99.90;;;;;;4953624;28;20042;-83
2023/03/26 06:05:57;;;;;;;20.88;3.55;;;5.90;99.90;;;;;;4953930;28;20053;-83
2023/03/26 06:08:23;;;;;;;21.25;3.67;;;6.00;99.90;;;;;;4954339;28;20134;-83
2023/03/26 06:10:49;;;;;;;20.17;3.45;;;6.00;99.90;;;;;;4969592;28;20457;-83
2023/03/26 06:13:16;;;;;;;27.17;3.42;;;6.30;99.90;;;;;;4954487;28;20462;-83
2023/03/26 06:15:42;;;;;;;22.85;3.30;;;6.00;99.90;;;;;;4970311;28;20043;-83
2023/03/26 06:18:08;;;;;;;24.27;3.65;;;6.00;99.90;;;;;;4970006;28;20069;-83
2023/03/26 06:20:34;;;;;;;22.05;2.88;;;6.10;99.90;;;;;;4952970;28;20403;-83
2023/03/26 06:23:00;;;;;;;24.33;3.30;;;6.10;99.90;;;;;;4954667;28;20186;-83
2023/03/26 06:25:26;;;;;;;21.55;2.90;;;6.10;99.90;;;;;;4953900;28;20158;-83
2023/03/26 06:27:51;;;;;;;26.38;4.03;;;6.20;99.90;;;;;;4969984;28;20587;-84
2023/03/26 06:30:17;;;;;;;21.08;3.30;;;6.20;99.90;;;;;;4954120;28;20070;-83
2023/03/26 06:32:43;;;;;;;21.08;3.05;;;6.20;99.90;;;;;;4952974;28;20058;-83
2023/03/26 06:35:10;;;;;;;31.65;3.97;;;6.20;99.90;;;;;;4953363;28;20046;-83
2023/03/26 06:37:36;;;;;;;26.73;3.65;;;6.20;99.90;;;;;;4954220;28;20119;-83
2023/03/26 06:40:02;;;;;;;24.40;3.80;;;6.20;99.90;;;;;;4952573;28;20062;-83
2023/03/26 06:42:27;;;;;;;25.25;4.05;;;6.20;99.90;;;;;;4954060;28;20157;-83
2023/03/26 06:44:53;;;;;;;25.70;3.95;;;6.20;99.90;;;;;;4953360;28;20284;-83
2023/03/26 06:47:19;;;;;;;24.08;3.10;;;6.30;99.90;;;;;;4969159;28;20042;-83
2023/03/26 06:49:44;;;;;;;24.23;4.05;;;6.30;99.90;;;;;;4953953;28;20039;-83
2023/03/26 06:52:11;;;;;;;25.02;3.88;;;6.50;99.90;;;;;;4967690;28;20534;-83
2023/03/26 06:54:37;;;;;;;21.90;3.13;;;6.40;99.90;;;;;;4953809;28;20148;-84
2023/03/26 06:57:03;;;;;;;25.80;3.42;;;6.40;99.90;;;;;;4952894;28;20050;-83
2023/03/26 06:59:29;;;;;;;23.98;3.28;;;6.40;99.90;;;;;;4953249;28;20225;-83
2023/03/26 07:01:54;;;;;;;17.65;2.55;;;6.40;99.90;;;;;;4953615;28;20030;-83
2023/03/26 07:04:20;;;;;;;23.05;3.38;;;6.50;99.90;;;;;;4969231;28;20388;-83
2023/03/26 07:06:46;;;;;;;30.40;3.15;;;6.50;99.90;;;;;;4951586;28;20061;-83
2023/03/26 07:09:11;;;;;;;24.90;3.50;;;6.50;99.90;;;;;;4956371;28;20104;-83
2023/03/26 07:11:37;;;;;;;20.38;3.85;;;6.60;99.90;;;;;;4972723;28;20061;-82
2023/03/26 07:14:03;;;;;;;17.10;2.63;;;6.60;99.90;;;;;;4956049;28;20053;-84
2023/03/26 07:16:28;;;;;;;16.30;2.28;;;6.70;99.90;;;;;;4956666;28;20069;-83
2023/03/26 07:18:54;;;;;;;31.42;3.10;;;6.80;99.90;;;;;;4972621;28;20508;-83
2023/03/26 07:21:21;;;;;;;18.63;2.90;;;6.80;99.90;;;;;;4970680;28;20054;-83
2023/03/26 07:23:48;;;;;;;22.35;3.33;;;6.80;99.90;;;;;;4956599;28;20051;-83
2023/03/26 07:26:42;;;;;;;21.10;4.13;;;6.80;99.90;;;;;;4972368;28;20057;-83
2023/03/26 07:29:32;;;;;;;19.20;3.08;;;6.80;99.90;;;;;;4955528;28;20089;-83
2023/03/26 07:32:10;;;;;;;14.98;2.42;;;6.80;99.90;;;;;;4937797;28;20681;-86
2023/03/26 07:34:43;;;;;;;20.92;2.72;;;6.90;99.90;;;;;;4936382;28;20122;-89
2023/03/26 07:37:22;;;;;;;18.88;2.60;;;6.80;99.90;;;;;;4935071;28;20061;-82
2023/03/26 07:39:57;;;;;;;25.50;4.72;;;6.80;99.90;;;;;;4934314;28;20046;-82
2023/03/26 07:42:36;;;;;;;22.40;3.33;;;6.90;99.90;;;;;;4934092;28;20077;-82
2023/03/26 07:45:15;;;;;;;19.05;2.70;;;6.90;99.90;;;;;;4934591;28;20125;-82
2023/03/26 07:47:43;;;;;;;21.77;3.13;;;6.90;99.90;;;;;;4934799;28;20058;-82
2023/03/26 07:50:15;;;;;;;21.05;2.72;;;6.90;99.90;;;;;;4932290;28;20158;-83
2023/03/26 07:52:41;;;;;;;21.02;3.20;;;6.90;99.90;;;;;;4934331;28;20137;-83
2023/03/26 07:55:11;;;;;;;24.55;3.20;;;7.00;99.90;;;;;;4933261;28;20043;-84
2023/03/26 07:58:10;;;;;;;20.42;2.95;;;6.90;99.90;;;;;;4933390;28;20054;-83
2023/03/26 08:00:50;;;;;;;18.52;3.03;;;6.90;99.90;;;;;;4949521;28;20387;-84
2023/03/26 08:03:37;;;;;;;24.48;3.17;;;6.90;99.90;;;;;;4948720;28;20038;-83
2023/03/26 08:06:13;;;;;;;22.48;2.83;;;6.90;99.90;;;;;;4949005;28;20109;-83
2023/03/26 08:09:12;;;;;;;22.70;2.95;;;7.00;99.90;;;;;;4933682;28;20130;-83
2023/03/26 08:11:56;;;;;;;17.60;2.65;;;7.10;99.90;;;;;;4948774;28;20069;-84
2023/03/26 08:14:37;;;;;;;25.60;2.72;;;7.20;99.90;;;;;;4933723;28;20054;-84
2023/03/26 08:17:11;;;;;;;21.23;2.78;;;7.30;99.90;;;;;;4932841;28;20058;-83
2023/03/26 08:19:47;;;;;;;21.98;2.53;;;7.40;99.90;;;;;;4949003;28;20049;-83
2023/03/26 08:22:25;;;;;;;19.70;2.92;;;7.50;99.90;;;;;;4948603;28;20359;-84
2023/03/26 08:25:09;;;;;;;21.60;3.25;;;7.60;99.90;;;;;;4946738;28;20063;-83
2023/03/26 08:27:42;;;;;;;16.88;2.92;;;7.70;99.90;;;;;;4949204;28;20573;-83
2023/03/26 08:30:23;;;;;;;24.08;3.88;;;7.80;99.90;;;;;;4936520;28;20144;-83
2023/03/26 08:32:55;;;;;;;20.85;3.08;;;7.80;99.90;;;;;;4950235;28;20136;-83
2023/03/26 08:35:21;;;;;;;18.98;2.97;;;7.70;99.90;;;;;;4947910;28;20330;-83
2023/03/26 08:37:46;;;;;;;15.55;2.42;;;7.70;99.90;;;;;;4949078;28;20046;-84
2023/03/26 08:40:34;;;;;;;20.05;3.45;;;7.60;99.90;;;;;;4932800;28;20405;-83
2023/03/26 08:43:27;;;;;;;15.20;2.40;;;7.50;99.90;;;;;;4945621;28;20050;-83
2023/03/26 08:46:00;;;;;;;20.35;3.85;;;7.50;99.90;;;;;;4954312;28;20042;-83
2023/03/26 08:48:38;;;;;;;13.88;2.65;;;7.70;99.90;;;;;;4955271;28;20046;-83
2023/03/26 08:51:38;;;;;;;25.48;2.33;;;7.90;99.90;;;;;;4953497;28;20046;-83
2023/03/26 08:54:13;;;;;;;20.08;2.45;;;8.00;99.90;;;;;;4952050;28;20050;-83
2023/03/26 08:57:02;;;;;;;16.48;2.67;;;8.10;99.90;;;;;;4951358;28;20494;-83
2023/03/26 08:59:35;;;;;;;18.42;2.70;;;8.30;99.90;;;;;;4950997;28;20050;-83
2023/03/26 09:02:26;;;;;;;17.02;2.65;;;8.50;99.90;;;;;;4936121;28;20058;-84
2023/03/26 09:04:53;;;;;;;14.73;2.28;;;8.60;99.90;;;;;;4931289;29;20471;-84
2023/03/26 09:07:34;;;;;;;20.50;2.70;;;8.50;99.90;;;;;;4947721;29;20098;-84
2023/03/26 09:10:23;;;;;;;19.33;2.60;;;8.50;99.90;;;;;;4945438;28;20051;-83
2023/03/26 09:12:55;;;;;;;22.08;2.90;;;8.50;99.90;;;;;;4929085;29;20462;-83
2023/03/26 09:15:32;;;;;;;28.58;4.32;;;8.50;99.90;;;;;;4929592;29;20047;-83
2023/03/26 09:18:23;;;;;;;25.35;3.15;;;8.40;99.90;;;;;;4945498;28;20059;-83
2023/03/26 09:21:17;;;;;;;27.27;3.83;;;8.40;99.90;;;;;;4928402;29;20114;-84
2023/03/26 09:23:48;;;;;;;22.10;2.95;;;8.40;99.90;;;;;;4945895;29;20415;-84
2023/03/26 09:26:26;;;;;;;22.08;3.42;;;8.40;99.90;;;;;;4930409;29;20427;-83
2023/03/26 09:29:32;;;;;;;15.07;3.00;;;8.40;99.90;;;;;;4928748;29;20116;-83
2023/03/26 09:32:35;;;;;;;14.13;2.45;;;8.50;99.90;;;;;;4932705;29;20169;-84
2023/03/26 09:35:20;;;;;;;17.92;2.72;;;8.40;99.90;;;;;;4944377;28;20070;-83
2023/03/26 09:37:51;;;;;;;20.15;2.72;;;8.30;99.90;;;;;;4970947;28;20050;-82
2023/03/26 09:40:23;;;;;;;21.15;2.80;;;8.20;99.90;;;;;;4964165;28;20078;-82
2023/03/26 09:42:55;;;;;;;19.80;3.50;;;8.30;99.90;;;;;;4944086;28;20077;-82
2023/03/26 09:45:31;;;;;;;23.85;3.33;;;8.40;99.90;;;;;;4954377;28;20035;-83
2023/03/26 09:48:17;;;;;;;19.25;2.55;;;8.40;99.90;;;;;;4954617;28;20058;-83
2023/03/26 09:50:58;;;;;;;18.98;2.42;;;8.40;99.90;;;;;;4970603;28;20046;-83
2023/03/26 09:53:55;;;;;;;15.90;2.35;;;8.50;99.90;;;;;;4955086;28;20046;-83
2023/03/26 09:56:31;;;;;;;16.13;2.50;;;8.50;99.90;;;;;;4953617;28;20306;-83
2023/03/26 09:59:08;;;;;;;14.98;2.83;;;8.40;99.90;;;;;;4970841;28;20039;-83
2023/03/26 10:01:50;;;;;;;20.10;2.83;;;8.40;99.90;;;;;;4954616;28;20501;-83
2023/03/26 10:04:43;;;;;;;15.82;3.10;;;8.40;99.90;;;;;;4954115;28;20059;-83
2023/03/26 10:07:14;;;;;;;30.52;3.70;;;8.50;99.90;;;;;;4969718;28;20046;-83
2023/03/26 10:09:52;;;;;;;22.20;2.40;;;8.50;99.90;;;;;;4969969;28;20074;-83
2023/03/26 10:12:21;;;;;;;20.75;2.55;;;8.60;99.90;;;;;;4954464;28;20046;-83
2023/03/26 10:15:02;;;;;;;17.95;2.45;;;8.60;99.90;;;;;;4954149;28;20074;-83
2023/03/26 10:17:36;;;;;;;17.02;2.45;;;8.60;99.90;;;;;;4969713;28;20058;-83
2023/03/26 10:20:08;;;;;;;25.48;2.30;;;8.60;99.90;;;;;;4969549;28;20097;-83
2023/03/26 10:23:02;;;;;;;17.30;2.80;;;8.60;99.90;;;;;;4954366;28;20142;-83
2023/03/26 10:25:41;;;;;;;20.48;2.90;;;8.50;99.90;;;;;;4970406;28;20051;-83
2023/03/26 10:28:30;;;;;;;21.90;2.92;;;8.60;99.90;;;;;;4954656;28;20051;-83
2023/03/26 10:31:38;;;;;;;16.13;2.60;;;8.60;99.90;;;;;;4969469;28;20039;-83
2023/03/26 10:34:27;;;;;;;15.48;2.47;;;8.40;99.90;;;;;;4953572;28;20094;-83
2023/03/26 10:36:53;;;;;;;18.50;2.92;;;8.40;99.90;;;;;;4949828;29;20054;-83
2023/03/26 10:39:49;;;;;;;14.88;2.70;;;8.40;99.90;;;;;;4934275;29;20046;-83
2023/03/26 10:42:29;;;;;;;21.05;3.00;;;8.50;99.90;;;;;;4934165;29;20102;-83
2023/03/26 10:45:24;;;;;;;16.17;2.67;;;8.50;99.90;;;;;;4933764;29;20039;-82
2023/03/26 10:48:14;;;;;;;13.73;2.28;;;8.50;99.90;;;;;;4951289;29;20059;-83
2023/03/26 10:50:49;;;;;;;25.52;2.75;;;8.50;99.90;;;;;;4933933;29;20051;-83
2023/03/26 10:53:30;;;;;;;16.60;2.83;;;8.50;99.90;;;;;;4934264;29;20047;-83
2023/03/26 10:56:05;;;;;;;17.45;2.45;;;8.60;99.90;;;;;;4950526;29;20078;-83
2023/03/26 10:58:33;;;;;;;14.00;2.25;;;8.80;99.90;;;;;;4950434;29;20074;-83
2023/03/26 11:01:03;;;;;;;25.75;2.80;;;9.00;99.90;;;;;;4950707;28;20047;-83
2023/03/26 11:03:40;;;;;;;21.85;2.80;;;9.10;99.90;;;;;;4952393;28;20051;-83
2023/03/26 11:06:06;;;;;;;21.02;2.47;;;9.20;99.90;;;;;;4935674;28;20403;-83
2023/03/26 11:09:02;;;;;;;18.15;2.60;;;9.30;99.90;;;;;;4937615;28;20403;-83
2023/03/26 11:11:52;;;;;;;19.83;3.00;;;9.30;99.90;;;;;;4971129;28;20046;-84
2023/03/26 11:14:24;;;;;;;18.20;2.97;;;9.20;99.90;;;;;;4937170;28;20050;-83
2023/03/26 11:17:14;;;;;;;15.40;2.33;;;9.00;99.90;;;;;;4953249;28;20483;-84
2023/03/26 11:19:51;;;;;;;15.13;2.08;;;8.90;99.90;;;;;;4937100;28;20398;-83
2023/03/26 11:22:24;;;;;;;18.77;2.30;;;9.00;99.90;;;;;;4952512;28;20126;-83
2023/03/26 11:25:01;;;;;;;14.77;2.58;;;8.80;99.90;;;;;;4953443;28;20452;-83
2023/03/26 11:27:43;;;;;;;13.07;2.45;;;8.70;99.90;;;;;;4937234;28;20050;-83
2023/03/26 11:30:21;;;;;;;16.27;2.65;;;8.60;99.90;;;;;;4952975;28;20055;-83
2023/03/26 11:32:51;;;;;;;12.45;2.10;;;8.60;99.90;;;;;;4953063;28;20058;-83
2023/03/26 11:35:39;;;;;;;16.27;2.40;;;8.50;99.90;;;;;;4950200;28;20509;-83
2023/03/26 11:38:17;;;;;;;14.77;2.28;;;8.40;99.90;;;;;;4952917;28;20069;-83
2023/03/26 11:40:49;;;;;;;12.65;2.13;;;8.40;99.90;;;;;;4951993;28;20047;-83
2023/03/26 11:43:17;;;;;;;21.42;2.28;;;8.50;99.90;;;;;;4953041;28;20215;-83
2023/03/26 11:45:45;;;;;;;12.15;1.70;;;8.50;99.90;;;;;;4952449;28;20057;-83
2023/03/26 11:48:30;;;;;;;13.98;1.88;;;8.60;99.90;;;;;;4952560;28;20057;-83
2023/03/26 11:51:03;;;;;;;16.05;2.75;;;8.50;99.90;;;;;;4951981;28;20096;-83
2023/03/26 11:53:33;;;;;;;9.63;1.83;;;8.50;99.90;;;;;;4952381;28;20053;-83
2023/03/26 11:56:13;;;;;;;16.35;2.30;;;8.50;99.90;;;;;;4951560;28;20058;-83
2023/03/26 11:58:45;;;;;;;13.82;2.22;;;8.60;99.90;;;;;;4936909;28;20051;-83
2023/03/26 12:01:15;;;;;;;13.80;2.40;;;8.50;99.90;;;;;;4952787;28;20053;-83
2023/03/26 12:03:41;;;;;;;17.83;2.90;;;8.50;99.90;;;;;;4951650;28;20381;-83
2023/03/26 12:06:24;;;;;;;21.33;3.92;;;8.60;99.90;;;;;;4967684;28;20558;-83
2023/03/26 12:08:50;;;;;;;16.25;2.30;;;8.70;99.90;;;;;;4968364;28;20046;-83
2023/03/26 12:11:19;;;;;;;15.57;2.28;;;8.70;99.90;;;;;;4968186;28;20487;-82
2023/03/26 12:13:55;;;;;;;17.42;2.47;;;8.60;99.90;;;;;;4936598;28;20101;-83
2023/03/26 12:16:21;;;;;;;13.13;2.20;;;8.60;99.90;;;;;;4951273;28;20495;-83
2023/03/26 12:18:59;;;;;;;11.88;2.58;;;8.50;99.90;;;;;;4968842;28;20058;-83
2023/03/26 12:21:25;;;;;;;9.38;1.75;;;8.50;99.90;;;;;;4952377;28;20442;-83
2023/03/26 12:23:58;;;;;;;12.88;2.15;;;8.40;99.90;;;;;;4967681;28;20609;-84
2023/03/26 12:26:43;;;;;;;16.50;2.95;;;8.40;99.90;;;;;;4952463;28;20054;-82
2023/03/26 12:29:15;;;;;;;19.13;2.53;;;8.30;99.90;;;;;;4959282;28;20452;-82
2023/03/26 12:31:48;;;;;;;12.85;2.17;;;8.30;99.90;;;;;;4952727;28;20046;-82
2023/03/26 12:34:16;;;;;;;15.38;2.20;;;8.20;99.90;;;;;;4953270;28;20131;-83
2023/03/26 12:36:49;;;;;;;10.82;2.10;;;8.30;99.90;;;;;;4936581;28;20563;-82
2023/03/26 12:39:31;;;;;;;12.20;2.25;;;8.20;99.90;;;;;;4949272;28;20043;-83
2023/03/26 12:41:59;;;;;;;12.50;1.80;;;8.30;99.90;;;;;;4933152;28;20523;-83
2023/03/26 12:44:29;;;;;;;15.73;2.30;;;8.20;99.90;;;;;;4933205;28;20046;-83
2023/03/26 12:47:08;;;;;;;12.90;1.98;;;8.10;99.90;;;;;;4963717;28;20047;-83
2023/03/26 12:49:35;;;;;;;15.80;2.53;;;8.20;99.90;;;;;;4964940;28;20042;-83
2023/03/26 12:52:17;;;;;;;14.85;1.85;;;8.40;99.90;;;;;;4948598;28;20122;-83
2023/03/26 12:54:48;;;;;;;13.38;1.85;;;8.60;99.90;;;;;;4949848;28;20383;-83
2023/03/26 12:57:25;;;;;;;17.30;2.40;;;8.70;99.90;;;;;;4949274;28;20385;-82
2023/03/26 13:00:13;;;;;;;18.27;2.13;;;8.80;99.90;;;;;;4948483;28;20137;-83
2023/03/26 13:02:40;;;;;;;20.48;2.20;;;8.80;99.90;;;;;;4948617;28;20042;-83
2023/03/26 13:05:21;;;;;;;13.13;2.47;;;8.80;99.90;;;;;;4962906;28;20062;-84
2023/03/26 13:07:54;;;;;;;15.00;2.30;;;8.80;99.90;;;;;;4965261;28;20169;-83
2023/03/26 13:10:28;;;;;;;19.75;2.90;;;8.80;99.90;;;;;;4948552;28;20043;-83
2023/03/26 13:13:21;;;;;;;17.67;3.22;;;8.80;99.90;;;;;;4948725;28;20047;-82
2023/03/26 13:15:51;;;;;;;18.92;4.47;;;8.80;99.90;;;;;;4932400;28;20154;-82